sensor_id;sensor_type;location;lat;lon;timestamp;P1;durP1;ratioP1;P2;durP2;ratioP2
48835;SDS011;62581;47.342;7.908;2022-12-16T00:02:27;6.68;;;4.57;;
48835;SDS011;62581;47.342;7.908;2022-12-16T00:04:54;26.27;;;10.38;;
48835;SDS011;62581;47.342;7.908;2022-12-16T00:07:22;7.03;;;4.97;;
48835;SDS011;62581;47.342;7.908;2022-12-16T00:09:49;7.82;;;5.20;;
48835;SDS011;62581;47.342;7.908;2022-12-16T00:12:17;6.80;;;4.80;;
48835;SDS011;62581;47.342;7.908;2022-12-16T00:14:44;6.63;;;4.20;;
48835;SDS011;62581;47.342;7.908;2022-12-16T00:17:11;8.07;;;5.13;;
48835;SDS011;62581;47.342;7.908;2022-12-16T00:19:38;7.28;;;4.85;;
48835;SDS011;62581;47.342;7.908;2022-12-16T00:22:05;6.10;;;4.43;;
48835;SDS011;62581;47.342;7.908;2022-12-16T00:24:32;5.90;;;4.25;;
48835;SDS011;62581;47.342;7.908;2022-12-16T00:26:59;6.30;;;4.35;;
48835;SDS011;62581;47.342;7.908;2022-12-16T00:29:27;6.50;;;4.57;;
48835;SDS011;62581;47.342;7.908;2022-12-16T00:31:54;5.68;;;4.05;;
48835;SDS011;62581;47.342;7.908;2022-12-16T00:34:21;7.53;;;4.53;;
48835;SDS011;62581;47.342;7.908;2022-12-16T00:36:48;6.32;;;4.35;;
48835;SDS011;62581;47.342;7.908;2022-12-16T00:39:15;6.63;;;4.15;;
48835;SDS011;62581;47.342;7.908;2022-12-16T00:41:42;6.78;;;4.45;;
48835;SDS011;62581;47.342;7.908;2022-12-16T00:44:11;5.80;;;4.05;;
48835;SDS011;62581;47.342;7.908;2022-12-16T00:46:40;5.25;;;3.90;;
48835;SDS011;62581;47.342;7.908;2022-12-16T00:49:07;5.63;;;4.10;;
48835;SDS011;62581;47.342;7.908;2022-12-16T00:51:34;5.78;;;4.40;;
48835;SDS011;62581;47.342;7.908;2022-12-16T00:54:01;7.78;;;4.57;;
48835;SDS011;62581;47.342;7.908;2022-12-16T00:56:28;8.45;;;4.85;;
48835;SDS011;62581;47.342;7.908;2022-12-16T00:58:55;6.60;;;4.70;;
48835;SDS011;62581;47.342;7.908;2022-12-16T01:01:22;5.47;;;4.18;;
48835;SDS011;62581;47.342;7.908;2022-12-16T01:03:50;6.05;;;4.18;;
48835;SDS011;62581;47.342;7.908;2022-12-16T01:06:17;6.57;;;4.63;;
48835;SDS011;62581;47.342;7.908;2022-12-16T01:08:44;6.68;;;4.20;;
48835;SDS011;62581;47.342;7.908;2022-12-16T01:13:41;5.32;;;3.50;;
48835;SDS011;62581;47.342;7.908;2022-12-16T01:16:08;5.10;;;3.97;;
48835;SDS011;62581;47.342;7.908;2022-12-16T01:18:35;5.57;;;3.78;;
48835;SDS011;62581;47.342;7.908;2022-12-16T01:21:04;5.03;;;3.65;;
48835;SDS011;62581;47.342;7.908;2022-12-16T01:23:33;6.68;;;4.03;;
48835;SDS011;62581;47.342;7.908;2022-12-16T01:26:00;5.38;;;3.40;;
48835;SDS011;62581;47.342;7.908;2022-12-16T01:28:27;4.07;;;3.20;;
48835;SDS011;62581;47.342;7.908;2022-12-16T01:30:55;4.18;;;3.78;;
48835;SDS011;62581;47.342;7.908;2022-12-16T01:33:25;4.80;;;3.80;;
48835;SDS011;62581;47.342;7.908;2022-12-16T01:35:57;4.57;;;3.60;;
48835;SDS011;62581;47.342;7.908;2022-12-16T01:38:26;6.20;;;3.95;;
48835;SDS011;62581;47.342;7.908;2022-12-16T01:40:54;6.68;;;4.47;;
48835;SDS011;62581;47.342;7.908;2022-12-16T01:43:25;6.25;;;4.13;;
48835;SDS011;62581;47.342;7.908;2022-12-16T01:45:53;6.05;;;4.68;;
48835;SDS011;62581;47.342;7.908;2022-12-16T01:48:29;6.10;;;4.38;;
48835;SDS011;62581;47.342;7.908;2022-12-16T01:51:01;7.93;;;4.65;;
48835;SDS011;62581;47.342;7.908;2022-12-16T01:53:33;5.72;;;4.82;;
48835;SDS011;62581;47.342;7.908;2022-12-16T01:56:03;6.82;;;4.43;;
48835;SDS011;62581;47.342;7.908;2022-12-16T01:58:31;10.70;;;6.72;;
48835;SDS011;62581;47.342;7.908;2022-12-16T02:01:02;13.80;;;9.48;;
48835;SDS011;62581;47.342;7.908;2022-12-16T02:03:31;16.77;;;10.93;;
48835;SDS011;62581;47.342;7.908;2022-12-16T02:06:00;20.15;;;11.90;;
48835;SDS011;62581;47.342;7.908;2022-12-16T02:11:03;17.60;;;10.68;;
48835;SDS011;62581;47.342;7.908;2022-12-16T02:13:44;17.48;;;11.23;;
48835;SDS011;62581;47.342;7.908;2022-12-16T02:16:22;21.85;;;12.32;;
48835;SDS011;62581;47.342;7.908;2022-12-16T02:18:56;21.13;;;12.05;;
48835;SDS011;62581;47.342;7.908;2022-12-16T02:24:38;20.88;;;12.07;;
48835;SDS011;62581;47.342;7.908;2022-12-16T02:33:22;19.10;;;11.65;;
48835;SDS011;62581;47.342;7.908;2022-12-16T02:36:14;19.70;;;10.82;;
48835;SDS011;62581;47.342;7.908;2022-12-16T02:38:48;19.50;;;11.35;;
48835;SDS011;62581;47.342;7.908;2022-12-16T02:41:23;21.45;;;12.05;;
48835;SDS011;62581;47.342;7.908;2022-12-16T02:43:55;18.95;;;11.10;;
48835;SDS011;62581;47.342;7.908;2022-12-16T02:46:29;21.73;;;12.65;;
48835;SDS011;62581;47.342;7.908;2022-12-16T02:49:03;22.98;;;12.25;;
48835;SDS011;62581;47.342;7.908;2022-12-16T02:51:31;20.30;;;12.40;;
48835;SDS011;62581;47.342;7.908;2022-12-16T02:54:00;23.67;;;12.73;;
48835;SDS011;62581;47.342;7.908;2022-12-16T02:56:30;22.52;;;12.73;;
48835;SDS011;62581;47.342;7.908;2022-12-16T02:59:07;22.38;;;13.50;;
48835;SDS011;62581;47.342;7.908;2022-12-16T03:04:13;20.75;;;11.63;;
48835;SDS011;62581;47.342;7.908;2022-12-16T03:06:45;23.38;;;12.38;;
48835;SDS011;62581;47.342;7.908;2022-12-16T03:09:16;22.83;;;12.38;;
48835;SDS011;62581;47.342;7.908;2022-12-16T03:11:48;21.30;;;11.68;;
48835;SDS011;62581;47.342;7.908;2022-12-16T03:14:19;20.33;;;11.93;;
48835;SDS011;62581;47.342;7.908;2022-12-16T03:16:50;19.05;;;10.80;;
48835;SDS011;62581;47.342;7.908;2022-12-16T03:19:18;20.92;;;11.35;;
48835;SDS011;62581;47.342;7.908;2022-12-16T03:21:47;20.35;;;10.90;;
48835;SDS011;62581;47.342;7.908;2022-12-16T03:24:20;18.15;;;10.45;;
48835;SDS011;62581;47.342;7.908;2022-12-16T03:26:50;17.02;;;10.32;;
48835;SDS011;62581;47.342;7.908;2022-12-16T03:29:23;15.43;;;9.98;;
48835;SDS011;62581;47.342;7.908;2022-12-16T03:32:00;18.88;;;10.13;;
48835;SDS011;62581;47.342;7.908;2022-12-16T03:34:31;16.80;;;9.43;;
48835;SDS011;62581;47.342;7.908;2022-12-16T03:37:01;16.75;;;10.32;;
48835;SDS011;62581;47.342;7.908;2022-12-16T03:39:31;18.30;;;10.48;;
48835;SDS011;62581;47.342;7.908;2022-12-16T03:42:00;18.15;;;9.88;;
48835;SDS011;62581;47.342;7.908;2022-12-16T03:44:29;16.20;;;10.10;;
48835;SDS011;62581;47.342;7.908;2022-12-16T03:46:56;19.80;;;11.05;;
48835;SDS011;62581;47.342;7.908;2022-12-16T03:49:25;20.95;;;11.48;;
48835;SDS011;62581;47.342;7.908;2022-12-16T03:51:52;20.05;;;10.82;;
48835;SDS011;62581;47.342;7.908;2022-12-16T03:54:20;18.85;;;10.93;;
48835;SDS011;62581;47.342;7.908;2022-12-16T03:56:47;19.38;;;10.85;;
48835;SDS011;62581;47.342;7.908;2022-12-16T03:59:14;24.45;;;12.18;;
48835;SDS011;62581;47.342;7.908;2022-12-16T04:01:41;22.55;;;12.23;;
48835;SDS011;62581;47.342;7.908;2022-12-16T04:04:08;22.98;;;13.30;;
48835;SDS011;62581;47.342;7.908;2022-12-16T04:06:37;19.90;;;11.73;;
48835;SDS011;62581;47.342;7.908;2022-12-16T04:09:05;24.15;;;12.80;;
48835;SDS011;62581;47.342;7.908;2022-12-16T04:11:32;21.85;;;12.30;;
48835;SDS011;62581;47.342;7.908;2022-12-16T04:14:17;25.88;;;13.23;;
48835;SDS011;62581;47.342;7.908;2022-12-16T04:17:01;19.92;;;10.57;;
48835;SDS011;62581;47.342;7.908;2022-12-16T04:19:48;20.23;;;11.02;;
48835;SDS011;62581;47.342;7.908;2022-12-16T04:22:35;18.40;;;10.25;;
48835;SDS011;62581;47.342;7.908;2022-12-16T04:25:23;21.92;;;11.43;;
48835;SDS011;62581;47.342;7.908;2022-12-16T04:27:54;22.63;;;11.45;;
48835;SDS011;62581;47.342;7.908;2022-12-16T04:30:22;19.70;;;11.43;;
48835;SDS011;62581;47.342;7.908;2022-12-16T04:32:52;20.38;;;11.45;;
48835;SDS011;62581;47.342;7.908;2022-12-16T04:35:40;22.98;;;11.80;;
48835;SDS011;62581;47.342;7.908;2022-12-16T04:38:25;20.77;;;11.57;;
48835;SDS011;62581;47.342;7.908;2022-12-16T04:41:10;22.30;;;12.15;;
48835;SDS011;62581;47.342;7.908;2022-12-16T04:43:54;21.45;;;11.07;;
48835;SDS011;62581;47.342;7.908;2022-12-16T04:46:38;19.70;;;11.70;;
48835;SDS011;62581;47.342;7.908;2022-12-16T04:49:25;22.80;;;11.88;;
48835;SDS011;62581;47.342;7.908;2022-12-16T04:52:15;21.30;;;12.55;;
48835;SDS011;62581;47.342;7.908;2022-12-16T04:55:00;20.35;;;11.10;;
48835;SDS011;62581;47.342;7.908;2022-12-16T04:57:46;18.15;;;10.65;;
48835;SDS011;62581;47.342;7.908;2022-12-16T05:00:31;24.20;;;11.20;;
48835;SDS011;62581;47.342;7.908;2022-12-16T05:03:16;22.33;;;12.50;;
48835;SDS011;62581;47.342;7.908;2022-12-16T05:06:00;19.83;;;10.82;;
48835;SDS011;62581;47.342;7.908;2022-12-16T05:08:44;20.42;;;11.55;;
48835;SDS011;62581;47.342;7.908;2022-12-16T05:11:30;18.98;;;11.30;;
48835;SDS011;62581;47.342;7.908;2022-12-16T05:14:14;21.15;;;11.80;;
48835;SDS011;62581;47.342;7.908;2022-12-16T05:16:58;22.05;;;11.95;;
48835;SDS011;62581;47.342;7.908;2022-12-16T05:19:45;24.02;;;12.57;;
48835;SDS011;62581;47.342;7.908;2022-12-16T05:22:29;26.65;;;12.85;;
48835;SDS011;62581;47.342;7.908;2022-12-16T05:25:14;21.92;;;12.05;;
48835;SDS011;62581;47.342;7.908;2022-12-16T05:28:00;23.73;;;12.70;;
48835;SDS011;62581;47.342;7.908;2022-12-16T05:30:44;22.38;;;11.73;;
48835;SDS011;62581;47.342;7.908;2022-12-16T05:33:29;21.42;;;12.02;;
48835;SDS011;62581;47.342;7.908;2022-12-16T05:36:15;23.73;;;12.25;;
48835;SDS011;62581;47.342;7.908;2022-12-16T05:39:00;25.10;;;12.60;;
48835;SDS011;62581;47.342;7.908;2022-12-16T05:41:44;22.27;;;12.25;;
48835;SDS011;62581;47.342;7.908;2022-12-16T05:44:30;24.63;;;13.23;;
48835;SDS011;62581;47.342;7.908;2022-12-16T05:47:14;23.48;;;12.68;;
48835;SDS011;62581;47.342;7.908;2022-12-16T05:49:58;22.73;;;12.15;;
48835;SDS011;62581;47.342;7.908;2022-12-16T05:52:48;24.42;;;13.48;;
48835;SDS011;62581;47.342;7.908;2022-12-16T05:55:41;24.30;;;12.98;;
48835;SDS011;62581;47.342;7.908;2022-12-16T05:58:26;22.58;;;12.68;;
48835;SDS011;62581;47.342;7.908;2022-12-16T06:01:13;26.02;;;13.40;;
48835;SDS011;62581;47.342;7.908;2022-12-16T06:03:57;26.27;;;13.43;;
48835;SDS011;62581;47.342;7.908;2022-12-16T06:06:42;27.10;;;13.55;;
48835;SDS011;62581;47.342;7.908;2022-12-16T06:09:27;24.80;;;13.55;;
48835;SDS011;62581;47.342;7.908;2022-12-16T06:12:11;30.77;;;14.15;;
48835;SDS011;62581;47.342;7.908;2022-12-16T06:14:55;29.85;;;13.82;;
48835;SDS011;62581;47.342;7.908;2022-12-16T06:17:41;29.75;;;14.93;;
48835;SDS011;62581;47.342;7.908;2022-12-16T06:20:26;28.35;;;15.02;;
48835;SDS011;62581;47.342;7.908;2022-12-16T06:23:10;25.77;;;13.63;;
48835;SDS011;62581;47.342;7.908;2022-12-16T06:25:55;28.42;;;14.48;;
48835;SDS011;62581;47.342;7.908;2022-12-16T06:28:40;28.10;;;14.75;;
48835;SDS011;62581;47.342;7.908;2022-12-16T06:31:24;28.40;;;15.52;;
48835;SDS011;62581;47.342;7.908;2022-12-16T06:34:21;28.40;;;15.82;;
48835;SDS011;62581;47.342;7.908;2022-12-16T06:37:05;28.83;;;14.32;;
48835;SDS011;62581;47.342;7.908;2022-12-16T06:39:50;30.88;;;15.90;;
48835;SDS011;62581;47.342;7.908;2022-12-16T06:42:37;30.25;;;15.68;;
48835;SDS011;62581;47.342;7.908;2022-12-16T06:45:22;26.88;;;15.60;;
48835;SDS011;62581;47.342;7.908;2022-12-16T06:48:07;28.83;;;15.45;;
48835;SDS011;62581;47.342;7.908;2022-12-16T06:50:53;29.25;;;15.88;;
48835;SDS011;62581;47.342;7.908;2022-12-16T06:53:37;34.20;;;17.10;;
48835;SDS011;62581;47.342;7.908;2022-12-16T06:56:22;29.77;;;15.82;;
48835;SDS011;62581;47.342;7.908;2022-12-16T06:59:08;32.83;;;16.90;;
48835;SDS011;62581;47.342;7.908;2022-12-16T07:01:53;32.95;;;17.38;;
48835;SDS011;62581;47.342;7.908;2022-12-16T07:04:37;33.72;;;17.00;;
48835;SDS011;62581;47.342;7.908;2022-12-16T07:07:23;29.67;;;15.57;;
48835;SDS011;62581;47.342;7.908;2022-12-16T07:10:08;32.40;;;16.52;;
48835;SDS011;62581;47.342;7.908;2022-12-16T07:12:55;34.28;;;17.15;;
48835;SDS011;62581;47.342;7.908;2022-12-16T07:15:40;32.85;;;17.38;;
48835;SDS011;62581;47.342;7.908;2022-12-16T07:18:33;35.55;;;17.10;;
48835;SDS011;62581;47.342;7.908;2022-12-16T07:21:17;34.83;;;17.73;;
48835;SDS011;62581;47.342;7.908;2022-12-16T07:24:03;32.30;;;16.58;;
48835;SDS011;62581;47.342;7.908;2022-12-16T07:26:48;33.67;;;17.02;;
48835;SDS011;62581;47.342;7.908;2022-12-16T07:29:32;36.40;;;19.42;;
48835;SDS011;62581;47.342;7.908;2022-12-16T07:32:17;30.25;;;17.02;;
48835;SDS011;62581;47.342;7.908;2022-12-16T07:35:01;28.27;;;17.13;;
48835;SDS011;62581;47.342;7.908;2022-12-16T07:37:46;37.53;;;18.27;;
48835;SDS011;62581;47.342;7.908;2022-12-16T07:40:31;30.90;;;17.33;;
48835;SDS011;62581;47.342;7.908;2022-12-16T07:43:15;34.78;;;18.15;;
48835;SDS011;62581;47.342;7.908;2022-12-16T07:46:00;33.78;;;17.98;;
48835;SDS011;62581;47.342;7.908;2022-12-16T07:48:44;31.00;;;17.17;;
48835;SDS011;62581;47.342;7.908;2022-12-16T07:51:28;32.92;;;19.02;;
48835;SDS011;62581;47.342;7.908;2022-12-16T07:54:12;31.05;;;18.30;;
48835;SDS011;62581;47.342;7.908;2022-12-16T07:56:59;31.27;;;17.65;;
48835;SDS011;62581;47.342;7.908;2022-12-16T07:59:43;33.15;;;17.42;;
48835;SDS011;62581;47.342;7.908;2022-12-16T08:02:28;31.27;;;17.40;;
48835;SDS011;62581;47.342;7.908;2022-12-16T08:05:12;32.47;;;17.58;;
48835;SDS011;62581;47.342;7.908;2022-12-16T08:07:56;36.22;;;18.00;;
48835;SDS011;62581;47.342;7.908;2022-12-16T08:10:40;30.67;;;17.30;;
48835;SDS011;62581;47.342;7.908;2022-12-16T08:13:26;34.13;;;17.42;;
48835;SDS011;62581;47.342;7.908;2022-12-16T08:16:10;34.20;;;17.58;;
48835;SDS011;62581;47.342;7.908;2022-12-16T08:18:55;30.63;;;17.40;;
48835;SDS011;62581;47.342;7.908;2022-12-16T08:21:39;29.48;;;17.38;;
48835;SDS011;62581;47.342;7.908;2022-12-16T08:24:23;29.73;;;17.38;;
48835;SDS011;62581;47.342;7.908;2022-12-16T08:27:08;30.20;;;16.98;;
48835;SDS011;62581;47.342;7.908;2022-12-16T08:29:53;30.55;;;16.73;;
48835;SDS011;62581;47.342;7.908;2022-12-16T08:32:38;31.90;;;17.00;;
48835;SDS011;62581;47.342;7.908;2022-12-16T08:35:22;30.33;;;16.83;;
48835;SDS011;62581;47.342;7.908;2022-12-16T08:38:07;32.67;;;18.10;;
48835;SDS011;62581;47.342;7.908;2022-12-16T08:40:53;34.05;;;17.25;;
48835;SDS011;62581;47.342;7.908;2022-12-16T08:43:38;30.90;;;17.75;;
48835;SDS011;62581;47.342;7.908;2022-12-16T08:46:23;31.05;;;16.98;;
48835;SDS011;62581;47.342;7.908;2022-12-16T08:49:20;28.92;;;16.60;;
48835;SDS011;62581;47.342;7.908;2022-12-16T08:52:04;28.60;;;17.65;;
48835;SDS011;62581;47.342;7.908;2022-12-16T08:54:48;35.70;;;17.90;;
48835;SDS011;62581;47.342;7.908;2022-12-16T08:57:32;27.48;;;16.05;;
48835;SDS011;62581;47.342;7.908;2022-12-16T09:00:17;33.78;;;16.15;;
48835;SDS011;62581;47.342;7.908;2022-12-16T09:03:17;30.55;;;15.45;;
48835;SDS011;62581;47.342;7.908;2022-12-16T09:06:10;27.52;;;16.48;;
48835;SDS011;62581;47.342;7.908;2022-12-16T09:08:55;30.48;;;16.35;;
48835;SDS011;62581;47.342;7.908;2022-12-16T09:11:40;29.95;;;16.75;;
48835;SDS011;62581;47.342;7.908;2022-12-16T09:14:24;30.88;;;17.60;;
48835;SDS011;62581;47.342;7.908;2022-12-16T09:17:08;28.85;;;17.05;;
48835;SDS011;62581;47.342;7.908;2022-12-16T09:19:54;33.38;;;18.20;;
48835;SDS011;62581;47.342;7.908;2022-12-16T09:22:39;33.25;;;17.88;;
48835;SDS011;62581;47.342;7.908;2022-12-16T09:25:23;30.52;;;17.52;;
48835;SDS011;62581;47.342;7.908;2022-12-16T09:28:07;35.78;;;19.15;;
48835;SDS011;62581;47.342;7.908;2022-12-16T09:30:52;32.67;;;18.42;;
48835;SDS011;62581;47.342;7.908;2022-12-16T09:33:36;31.42;;;18.55;;
48835;SDS011;62581;47.342;7.908;2022-12-16T09:36:22;34.05;;;19.15;;
48835;SDS011;62581;47.342;7.908;2022-12-16T09:39:06;34.80;;;19.00;;
48835;SDS011;62581;47.342;7.908;2022-12-16T09:41:54;37.88;;;19.40;;
48835;SDS011;62581;47.342;7.908;2022-12-16T09:45:02;33.83;;;18.92;;
48835;SDS011;62581;47.342;7.908;2022-12-16T09:47:56;34.72;;;18.40;;
48835;SDS011;62581;47.342;7.908;2022-12-16T09:51:03;38.08;;;19.73;;
48835;SDS011;62581;47.342;7.908;2022-12-16T09:53:52;34.38;;;18.60;;
48835;SDS011;62581;47.342;7.908;2022-12-16T09:56:38;34.00;;;18.48;;
48835;SDS011;62581;47.342;7.908;2022-12-16T09:59:24;31.75;;;18.42;;
48835;SDS011;62581;47.342;7.908;2022-12-16T10:02:14;37.90;;;20.40;;
48835;SDS011;62581;47.342;7.908;2022-12-16T10:05:01;28.77;;;17.50;;
48835;SDS011;62581;47.342;7.908;2022-12-16T10:07:53;32.33;;;18.63;;
48835;SDS011;62581;47.342;7.908;2022-12-16T10:10:44;33.42;;;18.55;;
48835;SDS011;62581;47.342;7.908;2022-12-16T10:13:41;32.67;;;18.80;;
48835;SDS011;62581;47.342;7.908;2022-12-16T10:16:32;29.48;;;16.42;;
48835;SDS011;62581;47.342;7.908;2022-12-16T10:19:26;31.67;;;19.45;;
48835;SDS011;62581;47.342;7.908;2022-12-16T10:22:22;34.15;;;18.75;;
48835;SDS011;62581;47.342;7.908;2022-12-16T10:25:14;31.35;;;17.52;;
48835;SDS011;62581;47.342;7.908;2022-12-16T10:28:07;32.25;;;17.80;;
48835;SDS011;62581;47.342;7.908;2022-12-16T10:30:59;29.35;;;17.75;;
48835;SDS011;62581;47.342;7.908;2022-12-16T10:33:44;38.17;;;20.13;;
48835;SDS011;62581;47.342;7.908;2022-12-16T10:39:24;34.20;;;17.67;;
48835;SDS011;62581;47.342;7.908;2022-12-16T10:42:16;28.55;;;17.00;;
48835;SDS011;62581;47.342;7.908;2022-12-16T10:45:06;30.52;;;17.40;;
48835;SDS011;62581;47.342;7.908;2022-12-16T10:47:59;33.45;;;17.63;;
48835;SDS011;62581;47.342;7.908;2022-12-16T10:50:44;29.50;;;16.33;;
48835;SDS011;62581;47.342;7.908;2022-12-16T10:53:28;29.63;;;17.08;;
48835;SDS011;62581;47.342;7.908;2022-12-16T10:56:17;28.02;;;16.83;;
48835;SDS011;62581;47.342;7.908;2022-12-16T10:59:16;27.92;;;17.02;;
48835;SDS011;62581;47.342;7.908;2022-12-16T11:02:03;29.33;;;17.48;;
48835;SDS011;62581;47.342;7.908;2022-12-16T11:04:59;32.28;;;18.55;;
48835;SDS011;62581;47.342;7.908;2022-12-16T11:07:49;35.38;;;19.38;;
48835;SDS011;62581;47.342;7.908;2022-12-16T11:10:36;31.73;;;17.77;;
48835;SDS011;62581;47.342;7.908;2022-12-16T11:13:23;28.95;;;16.42;;
48835;SDS011;62581;47.342;7.908;2022-12-16T11:16:10;27.75;;;16.48;;
48835;SDS011;62581;47.342;7.908;2022-12-16T11:18:58;26.70;;;16.48;;
48835;SDS011;62581;47.342;7.908;2022-12-16T11:21:43;28.70;;;17.00;;
48835;SDS011;62581;47.342;7.908;2022-12-16T11:24:28;32.83;;;16.80;;
48835;SDS011;62581;47.342;7.908;2022-12-16T11:27:27;29.67;;;17.98;;
48835;SDS011;62581;47.342;7.908;2022-12-16T11:30:15;29.10;;;17.05;;
48835;SDS011;62581;47.342;7.908;2022-12-16T11:33:04;29.27;;;16.60;;
48835;SDS011;62581;47.342;7.908;2022-12-16T11:36:00;28.77;;;16.13;;
48835;SDS011;62581;47.342;7.908;2022-12-16T11:38:49;29.65;;;17.50;;
48835;SDS011;62581;47.342;7.908;2022-12-16T11:41:35;29.52;;;16.67;;
48835;SDS011;62581;47.342;7.908;2022-12-16T11:44:22;29.70;;;17.23;;
48835;SDS011;62581;47.342;7.908;2022-12-16T11:47:13;29.83;;;15.93;;
48835;SDS011;62581;47.342;7.908;2022-12-16T11:50:04;31.95;;;17.15;;
48835;SDS011;62581;47.342;7.908;2022-12-16T11:52:53;29.65;;;16.75;;
48835;SDS011;62581;47.342;7.908;2022-12-16T11:55:39;31.45;;;16.75;;
48835;SDS011;62581;47.342;7.908;2022-12-16T11:58:28;33.55;;;18.25;;
48835;SDS011;62581;47.342;7.908;2022-12-16T12:01:22;30.23;;;17.25;;
48835;SDS011;62581;47.342;7.908;2022-12-16T12:04:13;28.90;;;17.02;;
48835;SDS011;62581;47.342;7.908;2022-12-16T12:07:17;28.73;;;16.00;;
48835;SDS011;62581;47.342;7.908;2022-12-16T12:10:12;33.58;;;18.13;;
48835;SDS011;62581;47.342;7.908;2022-12-16T12:13:30;30.10;;;16.42;;
48835;SDS011;62581;47.342;7.908;2022-12-16T12:16:26;32.67;;;16.70;;
48835;SDS011;62581;47.342;7.908;2022-12-16T12:19:15;27.52;;;16.25;;
48835;SDS011;62581;47.342;7.908;2022-12-16T12:24:52;27.33;;;15.00;;
48835;SDS011;62581;47.342;7.908;2022-12-16T12:27:49;28.95;;;16.33;;
48835;SDS011;62581;47.342;7.908;2022-12-16T12:30:42;25.52;;;15.27;;
48835;SDS011;62581;47.342;7.908;2022-12-16T12:33:34;32.03;;;16.88;;
48835;SDS011;62581;47.342;7.908;2022-12-16T12:36:27;27.05;;;15.70;;
48835;SDS011;62581;47.342;7.908;2022-12-16T12:39:21;28.67;;;16.95;;
48835;SDS011;62581;47.342;7.908;2022-12-16T12:42:11;29.40;;;15.68;;
48835;SDS011;62581;47.342;7.908;2022-12-16T12:45:15;37.33;;;17.15;;
48835;SDS011;62581;47.342;7.908;2022-12-16T12:48:25;28.80;;;15.57;;
48835;SDS011;62581;47.342;7.908;2022-12-16T12:51:20;30.23;;;15.50;;
48835;SDS011;62581;47.342;7.908;2022-12-16T12:54:13;27.88;;;15.52;;
48835;SDS011;62581;47.342;7.908;2022-12-16T12:57:07;26.60;;;15.55;;
48835;SDS011;62581;47.342;7.908;2022-12-16T12:59:55;27.45;;;15.38;;
48835;SDS011;62581;47.342;7.908;2022-12-16T13:02:48;27.08;;;15.23;;
48835;SDS011;62581;47.342;7.908;2022-12-16T13:05:38;26.92;;;14.98;;
48835;SDS011;62581;47.342;7.908;2022-12-16T13:08:31;27.55;;;15.00;;
48835;SDS011;62581;47.342;7.908;2022-12-16T13:11:24;26.35;;;14.18;;
48835;SDS011;62581;47.342;7.908;2022-12-16T13:17:26;24.70;;;14.63;;
48835;SDS011;62581;47.342;7.908;2022-12-16T13:23:27;26.65;;;15.02;;
48835;SDS011;62581;47.342;7.908;2022-12-16T13:26:14;30.02;;;15.70;;
48835;SDS011;62581;47.342;7.908;2022-12-16T13:29:02;27.98;;;15.05;;
48835;SDS011;62581;47.342;7.908;2022-12-16T13:32:00;27.00;;;15.02;;
48835;SDS011;62581;47.342;7.908;2022-12-16T13:34:57;26.52;;;15.30;;
48835;SDS011;62581;47.342;7.908;2022-12-16T13:37:50;26.30;;;14.23;;
48835;SDS011;62581;47.342;7.908;2022-12-16T13:40:49;27.13;;;14.75;;
48835;SDS011;62581;47.342;7.908;2022-12-16T13:43:41;26.38;;;13.95;;
48835;SDS011;62581;47.342;7.908;2022-12-16T13:46:38;27.23;;;14.60;;
48835;SDS011;62581;47.342;7.908;2022-12-16T13:49:41;28.10;;;14.65;;
48835;SDS011;62581;47.342;7.908;2022-12-16T13:52:33;25.35;;;13.95;;
48835;SDS011;62581;47.342;7.908;2022-12-16T13:55:26;24.98;;;13.50;;
48835;SDS011;62581;47.342;7.908;2022-12-16T13:58:16;25.67;;;13.57;;
48835;SDS011;62581;47.342;7.908;2022-12-16T14:01:11;22.15;;;13.15;;
48835;SDS011;62581;47.342;7.908;2022-12-16T14:03:59;25.45;;;13.43;;
48835;SDS011;62581;47.342;7.908;2022-12-16T14:06:44;25.48;;;13.73;;
48835;SDS011;62581;47.342;7.908;2022-12-16T14:09:31;22.20;;;12.57;;
48835;SDS011;62581;47.342;7.908;2022-12-16T14:15:38;24.87;;;13.10;;
48835;SDS011;62581;47.342;7.908;2022-12-16T14:18:35;24.90;;;12.82;;
48835;SDS011;62581;47.342;7.908;2022-12-16T14:21:27;24.90;;;12.75;;
48835;SDS011;62581;47.342;7.908;2022-12-16T14:24:20;29.20;;;13.40;;
48835;SDS011;62581;47.342;7.908;2022-12-16T14:27:12;25.45;;;12.32;;
48835;SDS011;62581;47.342;7.908;2022-12-16T14:29:59;22.05;;;12.77;;
48835;SDS011;62581;47.342;7.908;2022-12-16T14:32:46;21.90;;;11.73;;
48835;SDS011;62581;47.342;7.908;2022-12-16T14:35:30;25.88;;;13.32;;
48835;SDS011;62581;47.342;7.908;2022-12-16T14:38:19;23.33;;;12.50;;
48835;SDS011;62581;47.342;7.908;2022-12-16T14:41:07;23.70;;;13.05;;
48835;SDS011;62581;47.342;7.908;2022-12-16T14:43:54;25.20;;;12.13;;
48835;SDS011;62581;47.342;7.908;2022-12-16T14:46:38;25.15;;;12.50;;
48835;SDS011;62581;47.342;7.908;2022-12-16T14:49:25;23.88;;;12.65;;
48835;SDS011;62581;47.342;7.908;2022-12-16T14:52:17;26.40;;;13.60;;
48835;SDS011;62581;47.342;7.908;2022-12-16T14:55:12;26.52;;;13.38;;
48835;SDS011;62581;47.342;7.908;2022-12-16T14:58:05;24.98;;;12.70;;
48835;SDS011;62581;47.342;7.908;2022-12-16T15:00:53;25.40;;;13.13;;
48835;SDS011;62581;47.342;7.908;2022-12-16T15:03:40;22.25;;;12.05;;
48835;SDS011;62581;47.342;7.908;2022-12-16T15:06:39;21.50;;;12.02;;
48835;SDS011;62581;47.342;7.908;2022-12-16T15:09:26;25.23;;;12.20;;
48835;SDS011;62581;47.342;7.908;2022-12-16T15:12:14;23.70;;;12.40;;
48835;SDS011;62581;47.342;7.908;2022-12-16T15:15:02;28.00;;;13.10;;
48835;SDS011;62581;47.342;7.908;2022-12-16T15:17:49;21.85;;;12.40;;
48835;SDS011;62581;47.342;7.908;2022-12-16T15:20:36;23.63;;;12.15;;
48835;SDS011;62581;47.342;7.908;2022-12-16T15:23:37;23.55;;;12.40;;
48835;SDS011;62581;47.342;7.908;2022-12-16T15:26:24;25.88;;;12.95;;
48835;SDS011;62581;47.342;7.908;2022-12-16T15:29:25;21.83;;;12.15;;
48835;SDS011;62581;47.342;7.908;2022-12-16T15:32:30;38.40;;;16.55;;
48835;SDS011;62581;47.342;7.908;2022-12-16T15:35:23;22.17;;;12.50;;
48835;SDS011;62581;47.342;7.908;2022-12-16T15:38:10;23.52;;;12.02;;
48835;SDS011;62581;47.342;7.908;2022-12-16T15:40:56;23.92;;;12.75;;
48835;SDS011;62581;47.342;7.908;2022-12-16T15:43:41;24.02;;;12.93;;
48835;SDS011;62581;47.342;7.908;2022-12-16T15:46:29;22.27;;;12.05;;
48835;SDS011;62581;47.342;7.908;2022-12-16T15:49:15;22.08;;;12.40;;
48835;SDS011;62581;47.342;7.908;2022-12-16T15:52:14;23.27;;;12.38;;
48835;SDS011;62581;47.342;7.908;2022-12-16T15:55:20;25.88;;;12.48;;
48835;SDS011;62581;47.342;7.908;2022-12-16T15:58:13;29.27;;;13.77;;
48835;SDS011;62581;47.342;7.908;2022-12-16T16:01:08;23.60;;;12.30;;
48835;SDS011;62581;47.342;7.908;2022-12-16T16:03:54;25.10;;;12.57;;
48835;SDS011;62581;47.342;7.908;2022-12-16T16:06:48;22.95;;;12.77;;
48835;SDS011;62581;47.342;7.908;2022-12-16T16:09:35;25.80;;;12.93;;
48835;SDS011;62581;47.342;7.908;2022-12-16T16:12:21;23.65;;;12.32;;
48835;SDS011;62581;47.342;7.908;2022-12-16T16:15:09;22.63;;;12.45;;
48835;SDS011;62581;47.342;7.908;2022-12-16T16:17:55;26.05;;;13.13;;
48835;SDS011;62581;47.342;7.908;2022-12-16T16:20:41;21.40;;;11.90;;
48835;SDS011;62581;47.342;7.908;2022-12-16T16:23:27;23.27;;;13.00;;
48835;SDS011;62581;47.342;7.908;2022-12-16T16:26:12;20.20;;;11.68;;
48835;SDS011;62581;47.342;7.908;2022-12-16T16:28:58;23.90;;;12.75;;
48835;SDS011;62581;47.342;7.908;2022-12-16T16:31:44;23.02;;;12.48;;
48835;SDS011;62581;47.342;7.908;2022-12-16T16:34:29;24.15;;;12.32;;